CDT,Max TemperatureF,Mean TemperatureF,Min TemperatureF,Max Dew PointF,MeanDew PointF,Min DewpointF,Max Humidity, Mean Humidity, Min Humidity, Max Sea Level PressureIn, Mean Sea Level PressureIn, Min Sea Level PressureIn, Max VisibilityMiles, Mean VisibilityMiles, Min VisibilityMiles, Max Wind SpeedMPH, Mean Wind SpeedMPH, Max Gust SpeedMPH,PrecipitationIn, CloudCover, Events, WindDirDegrees
2013-10-1,85,77,69,72,70,66,90,76,61,30.08,30.03,29.99,10,10,10,12,5,14,0.00,0,,88
2013-10-2,81,77,73,73,71,70,93,85,76,30.08,30.04,30.02,10,10,6,13,6,18,0.03,6,Rain-Thunderstorm,78
2013-10-3,85,78,71,74,71,66,87,79,70,30.08,30.03,30.00,10,10,10,17,8,21,T,2,,103
2013-10-4,87,81,75,76,73,69,91,74,57,30.08,30.04,30.01,10,10,7,16,6,20,T,4,Rain,111
2013-10-5,87,82,76,75,73,71,94,80,65,30.06,30.01,29.96,10,8,0,15,8,21,0.00,3,Fog,110
2013-10-6,83,78,73,74,72,70,93,81,69,29.95,29.87,29.81,10,8,1,24,7,29,1.41,7,Rain,132
2013-10-7,80,71,61,70,57,51,87,63,39,29.98,29.89,29.83,10,10,3,24,15,30,T,3,Rain,343
2013-10-8,82,70,57,66,56,51,84,62,39,30.01,29.98,29.95,10,10,10,12,6,25,0.00,1,,350
2013-10-9,79,73,66,67,64,62,90,76,62,30.12,30.06,30.00,10,10,10,12,6,17,0.00,4,,60
2013-10-10,82,73,64,67,65,62,93,76,58,30.13,30.07,30.02,10,10,8,9,4,15,0.00,2,,91
2013-10-11,85,76,66,68,64,60,93,70,47,30.08,30.03,29.98,10,9,5,10,4,13,0.00,1,,343
2013-10-12,87,77,67,69,66,61,93,69,44,30.09,30.05,30.01,10,10,7,10,5,14,0.00,1,,297
2013-10-13,86,77,68,67,62,56,90,64,37,30.17,30.11,30.07,10,10,10,13,5,17,0.00,0,,11
2013-10-14,85,76,67,66,63,60,81,63,44,30.13,30.08,30.03,10,10,10,12,5,16,0.00,1,,62
2013-10-15,81,73,65,66,63,61,93,72,51,30.08,30.03,29.98,10,10,10,10,5,15,0.00,1,,88
2013-10-16,83,74,65,67,65,62,93,74,55,30.04,29.98,29.94,10,10,10,10,5,14,0.00,0,,107
2013-10-17,84,76,68,74,70,66,90,78,65,29.98,29.93,29.89,10,9,1,14,6,17,0.29,6,Rain,269
2013-10-18,80,73,66,65,63,60,87,73,58,30.03,29.97,29.93,10,10,4,12,6,37,0.01,5,Rain,6
2013-10-19,73,68,63,65,60,55,87,77,66,30.01,29.96,29.92,10,10,10,17,6,22,0.01,6,Rain,2
2013-10-20,76,67,57,58,55,53,93,70,46,30.06,30.01,29.97,10,10,7,12,6,20,0.00,1,,360
2013-10-21,73,68,62,61,58,55,81,71,61,30.06,30.02,29.99,10,10,10,10,4,13,0.03,2,Rain,16
2013-10-22,74,68,61,64,61,55,93,77,61,29.99,29.95,29.89,10,10,7,13,4,17,0.11,4,Rain,326
2013-10-23,75,66,56,55,46,37,87,56,25,30.13,30.04,29.96,10,10,10,21,10,26,0.00,0,,341
2013-10-24,74,63,51,52,45,39,72,51,29,30.24,30.18,30.12,10,10,10,12,5,15,0.00,0,,319
2013-10-25,69,61,52,52,41,33,80,54,27,30.37,30.30,30.21,10,10,10,16,9,23,0.00,0,,5
2013-10-26,72,60,47,45,37,29,71,47,22,30.30,30.24,30.17,10,10,10,9,3,13,0.00,0,,46
2013-10-27,74,61,48,57,49,41,86,62,37,30.19,30.14,30.11,10,10,10,9,3,14,T,1,,70
2013-10-28,78,68,57,60,57,52,87,68,48,30.23,30.18,30.12,10,10,10,12,5,16,0.00,1,,93
2013-10-29,78,69,59,64,60,56,90,70,50,30.29,30.23,30.20,10,10,9,13,5,17,0.00,0,,71
2013-10-30,80,72,63,69,65,59,93,82,71,30.24,30.18,30.11,10,10,9,15,8,21,0.00,1,,102
2013-10-31,83,78,72,72,69,67,84,75,65,30.09,29.98,29.90,10,10,10,21,12,25,T,2,,171